Time;durP1;ratioP1;P1;durP2;ratioP2;P2;SDS_P1;SDS_P2;PMS_P1;PMS_P2;Temp;Humidity;BMP_temperature;BMP_pressure;BME280_temperature;BME280_humidity;BME280_pressure;Samples;Min_cycle;Max_cycle;Signal;HPM_P1;HPM_P2
2024/01/04 00:00:30;;;;;;;0.70;0.50;;;10.70;99.90;;;10.93;84.99;98843.59;4836383;28;25061;-63
2024/01/04 00:02:52;;;;;;;1.10;0.50;;;10.80;99.90;;;10.98;84.28;98837.09;4835653;28;24476;-63
2024/01/04 00:05:14;;;;;;;1.80;0.80;;;10.80;99.90;;;10.98;84.45;98843.16;4837649;28;24433;-66
2024/01/04 00:07:37;;;;;;;0.70;0.60;;;10.80;99.90;;;10.99;82.89;98828.31;4824175;28;24877;-63
2024/01/04 00:09:59;;;;;;;1.10;0.60;;;10.80;99.90;;;11.03;82.49;98846.09;4836478;28;24984;-65
2024/01/04 00:12:21;;;;;;;1.40;0.65;;;10.80;99.90;;;11.06;82.43;98853.63;4830557;28;24460;-65
2024/01/04 00:14:44;;;;;;;0.75;0.70;;;10.80;99.90;;;11.08;82.63;98848.22;4816682;28;24503;-66
2024/01/04 00:17:06;;;;;;;1.05;0.60;;;10.90;99.90;;;11.12;81.33;98853.00;4823475;28;24899;-66
2024/01/04 00:19:28;;;;;;;1.60;0.80;;;10.90;99.90;;;11.15;81.40;98852.69;4828560;28;25016;-65
2024/01/04 00:21:50;;;;;;;4.32;0.75;;;10.90;99.90;;;11.04;80.59;98854.75;4800100;28;24437;-64
2024/01/04 00:24:12;;;;;;;2.03;0.80;;;10.90;99.90;;;11.11;80.92;98863.59;4833747;28;24436;-64
2024/01/04 00:26:34;;;;;;;0.77;0.70;;;10.90;99.90;;;11.14;81.26;98856.25;4831422;28;24990;-66
2024/01/04 00:28:57;;;;;;;3.00;0.60;;;10.90;99.90;;;11.17;80.34;98866.41;4818329;28;24480;-65
2024/01/04 00:31:19;;;;;;;1.90;0.60;;;11.00;99.90;;;11.12;80.29;98866.03;4824239;28;24421;-65
2024/01/04 00:33:41;;;;;;;1.40;0.70;;;11.00;99.90;;;11.14;80.81;98871.13;4832858;28;24456;-65
2024/01/04 00:36:03;;;;;;;2.00;0.70;;;11.00;99.90;;;11.18;80.66;98872.44;4837024;28;24441;-64
2024/01/04 00:38:25;;;;;;;0.57;0.50;;;11.00;99.90;;;11.19;81.41;98876.66;4835391;28;24439;-64
2024/01/04 00:40:47;;;;;;;1.10;0.60;;;11.00;99.90;;;11.18;81.18;98867.22;4836171;28;24424;-66
2024/01/04 00:43:09;;;;;;;0.70;0.70;;;11.00;99.90;;;11.18;81.42;98869.84;4833971;28;24552;-63
2024/01/04 00:45:32;;;;;;;1.50;0.60;;;11.00;99.90;;;11.22;81.75;98877.16;4827718;28;24428;-62
2024/01/04 00:47:54;;;;;;;0.70;0.50;;;11.00;99.90;;;11.22;81.43;98864.13;4825683;28;24459;-64
2024/01/04 00:50:16;;;;;;;0.60;0.60;;;11.00;99.90;;;11.20;80.83;98881.72;4829997;28;25249;-65
2024/01/04 00:52:38;;;;;;;0.90;0.70;;;11.00;99.90;;;11.14;81.92;98890.19;4833170;28;24487;-65
2024/01/04 00:55:00;;;;;;;1.10;0.50;;;11.00;99.90;;;11.18;81.95;98888.09;4832864;28;21144;-65
2024/01/04 00:57:22;;;;;;;0.60;0.60;;;11.00;99.90;;;11.19;82.17;98892.34;4835760;28;25002;-65
2024/01/04 00:59:44;;;;;;;0.50;0.50;;;11.00;99.90;;;11.17;82.70;98900.31;4832620;28;24574;-65
2024/01/04 01:02:06;;;;;;;1.20;0.55;;;11.00;99.90;;;11.13;82.33;98906.84;4814498;28;24522;-65
2024/01/04 01:04:28;;;;;;;1.50;0.60;;;11.00;99.90;;;11.14;82.61;98905.06;4814233;28;24946;-65
2024/01/04 01:06:50;;;;;;;1.80;0.60;;;11.00;99.90;;;11.14;83.20;98911.06;4834451;28;24523;-65
2024/01/04 01:09:12;;;;;;;1.00;0.70;;;11.00;99.90;;;11.16;82.30;98910.94;4834307;28;24535;-65
2024/01/04 01:11:34;;;;;;;1.10;0.60;;;11.00;99.90;;;11.10;82.90;98911.53;4815984;28;24921;-67
2024/01/04 01:13:56;;;;;;;0.65;0.65;;;11.00;99.90;;;11.10;83.32;98901.91;4833474;28;24436;-64
2024/01/04 01:16:18;;;;;;;0.95;0.50;;;11.00;99.90;;;11.09;83.11;98909.91;4818156;28;24981;-64
2024/01/04 01:18:40;;;;;;;0.50;0.50;;;10.90;99.90;;;11.09;83.71;98905.50;4818094;28;24529;-64
2024/01/04 01:21:02;;;;;;;0.40;0.40;;;10.90;99.90;;;11.09;83.99;98917.75;4835001;28;24996;-64
2024/01/04 01:23:24;;;;;;;0.70;0.60;;;10.90;99.90;;;11.07;83.92;98909.25;4833251;28;24522;-64
2024/01/04 01:25:46;;;;;;;0.50;0.50;;;10.90;99.90;;;11.05;85.01;98916.41;4825097;28;24612;-64
2024/01/04 01:28:08;;;;;;;2.80;0.60;;;10.90;99.90;;;11.05;84.14;98916.41;4832642;28;24475;-65
2024/01/04 01:30:30;;;;;;;0.50;0.50;;;10.90;99.90;;;11.01;84.64;98913.28;4819692;28;24464;-65
2024/01/04 01:32:52;;;;;;;1.80;0.40;;;10.80;99.90;;;11.04;84.47;98915.59;4834467;28;24436;-64
2024/01/04 01:35:14;;;;;;;0.50;0.50;;;10.90;99.90;;;10.98;84.33;98924.03;4837877;28;24435;-64
2024/01/04 01:37:37;;;;;;;1.10;0.50;;;10.80;99.90;;;11.01;84.72;98925.53;4836174;28;25274;-64
2024/01/04 01:39:59;;;;;;;1.00;0.70;;;10.80;99.90;;;10.99;84.55;98920.44;4817809;28;24871;-65
2024/01/04 01:42:21;;;;;;;1.93;0.60;;;10.80;99.90;;;11.00;84.30;98921.25;4835088;28;24454;-65
2024/01/04 01:44:43;;;;;;;2.35;0.50;;;10.80;99.90;;;10.97;83.87;98934.63;4830704;28;24459;-64
2024/01/04 01:47:05;;;;;;;1.20;0.60;;;10.80;99.90;;;10.99;83.92;98935.31;4820077;28;24443;-64
2024/01/04 01:49:27;;;;;;;0.60;0.60;;;10.80;99.90;;;10.99;84.06;98935.31;4837604;28;24447;-65
2024/01/04 01:51:50;;;;;;;1.50;0.60;;;10.80;99.90;;;11.01;84.84;98935.97;4836195;28;24444;-65
2024/01/04 01:54:12;;;;;;;1.00;0.60;;;10.80;99.90;;;11.03;84.50;98936.63;4825760;28;24516;-64
2024/01/04 01:56:34;;;;;;;0.70;0.52;;;10.80;99.90;;;11.04;84.45;98938.25;4820400;28;24435;-64
2024/01/04 01:59:01;;;;;;;1.67;0.60;;;10.80;99.90;;;11.07;83.74;98953.63;4836285;28;24978;-64
2024/01/04 02:01:25;;;;;;;1.20;0.60;;;10.90;99.90;;;11.06;83.99;98952.78;4818236;28;24476;-65
2024/01/04 02:03:48;;;;;;;0.80;0.60;;;10.90;99.90;;;11.08;83.42;98963.06;4838016;28;24894;-65
2024/01/04 02:06:10;;;;;;;1.38;0.60;;;10.90;99.90;;;11.03;83.85;98967.94;4836151;28;24435;-65
2024/01/04 02:08:32;;;;;;;2.70;0.40;;;10.90;99.90;;;11.06;83.32;98978.06;4837612;28;24471;-64
2024/01/04 02:10:54;;;;;;;1.80;0.60;;;10.90;99.90;;;11.09;83.65;98978.59;4837266;28;24459;-64
2024/01/04 02:13:16;;;;;;;2.70;0.60;;;11.00;99.90;;;11.07;82.82;98984.94;4835883;28;24440;-64
2024/01/04 02:15:38;;;;;;;1.67;0.52;;;10.90;99.90;;;11.08;82.90;98976.94;4837878;28;24450;-64
2024/01/04 02:18:00;;;;;;;1.20;0.50;;;10.90;99.90;;;11.10;82.39;98982.81;4835625;28;24869;-65
2024/01/04 02:20:22;;;;;;;0.60;0.60;;;10.90;99.90;;;11.04;82.07;98990.44;4835453;28;24453;-63
2024/01/04 02:22:45;;;;;;;1.13;0.70;;;10.90;99.90;;;11.10;82.43;98992.44;4835928;28;24448;-64
2024/01/04 02:25:07;;;;;;;2.22;0.60;;;11.00;99.90;;;11.09;81.56;98983.00;4836792;28;24889;-65
2024/01/04 02:27:29;;;;;;;0.70;0.50;;;10.90;99.90;;;11.06;81.83;98986.72;4831135;28;24951;-63
2024/01/04 02:29:51;;;;;;;0.80;0.50;;;10.90;99.90;;;11.07;82.27;99005.81;4838413;28;24459;-64
2024/01/04 02:32:13;;;;;;;0.85;0.43;;;10.90;99.90;;;10.99;82.44;99005.75;4835020;28;25076;-65
2024/01/04 02:34:35;;;;;;;1.10;0.40;;;10.90;99.90;;;10.98;82.49;99001.50;4836457;28;24514;-64
2024/01/04 02:36:57;;;;;;;1.15;0.70;;;10.90;99.90;;;10.96;82.49;99019.09;4837283;28;24431;-64
2024/01/04 02:39:19;;;;;;;0.93;0.50;;;10.80;99.90;;;10.96;81.62;99016.47;4815473;28;25104;-67
2024/01/04 02:41:41;;;;;;;1.20;0.50;;;10.80;99.90;;;10.85;82.58;99022.75;4837356;28;25027;-63
2024/01/04 02:44:03;;;;;;;0.40;0.30;;;10.80;99.90;;;10.86;81.62;99025.22;4836510;28;20762;-64
2024/01/04 02:46:25;;;;;;;0.50;0.50;;;10.80;99.90;;;10.86;81.60;99017.38;4833989;28;24444;-63
2024/01/04 02:48:47;;;;;;;0.90;0.40;;;10.80;99.90;;;10.85;81.58;99007.94;4837826;28;24453;-63
2024/01/04 02:51:09;;;;;;;0.40;0.40;;;10.70;99.90;;;10.81;82.03;99008.38;4834036;28;24552;-62
2024/01/04 02:53:31;;;;;;;0.50;0.50;;;10.70;99.90;;;10.80;81.48;99004.13;4844773;28;24429;-64
2024/01/04 02:55:55;;;;;;;1.60;0.40;;;10.70;99.90;;;10.79;81.33;99002.50;4837208;28;24524;-64
2024/01/04 02:58:18;;;;;;;1.05;0.40;;;10.70;99.90;;;10.74;82.31;99020.38;4835254;28;24507;-64
2024/01/04 03:00:39;;;;;;;1.10;0.60;;;10.60;99.90;;;10.67;82.61;99021.94;4836569;28;24524;-65
2024/01/04 03:03:02;;;;;;;0.57;0.50;;;10.60;99.90;;;10.66;82.96;99026.34;4831708;28;24459;-65
2024/01/04 03:05:24;;;;;;;0.50;0.40;;;10.50;99.90;;;10.56;84.39;99028.19;4818711;28;24433;-64
2024/01/04 03:07:46;;;;;;;0.50;0.50;;;10.50;99.90;;;10.48;84.26;99020.31;4836160;28;25030;-64
2024/01/04 03:10:08;;;;;;;0.88;0.50;;;10.40;99.90;;;10.43;84.42;99030.38;4837629;28;24539;-65
2024/01/04 03:12:30;;;;;;;0.30;0.30;;;10.30;99.90;;;10.43;84.85;99032.97;4830586;28;25380;-65
2024/01/04 03:14:52;;;;;;;0.50;0.50;;;10.30;99.90;;;10.39;85.56;99034.22;4836507;28;24432;-65
2024/01/04 03:17:14;;;;;;;0.40;0.40;;;10.30;99.90;;;10.40;84.64;99035.03;4835951;28;25024;-64
2024/01/04 03:19:36;;;;;;;0.60;0.47;;;10.30;99.90;;;10.37;85.31;99040.56;4834535;28;24486;-65
2024/01/04 03:21:58;;;;;;;0.30;0.30;;;10.20;99.90;;;10.41;85.29;99054.94;4821966;28;24435;-65
2024/01/04 03:24:20;;;;;;;0.40;0.40;;;10.30;99.90;;;10.34;85.93;99041.69;4819603;28;24527;-64
2024/01/04 03:26:42;;;;;;;0.80;0.50;;;10.30;99.90;;;10.38;85.02;99050.84;4833324;28;24535;-64
2024/01/04 03:29:04;;;;;;;2.20;0.50;;;10.30;99.90;;;10.35;85.94;99042.50;4830676;28;24506;-64
2024/01/04 03:31:26;;;;;;;1.25;0.43;;;10.20;99.90;;;10.36;85.28;99047.56;4835556;28;24458;-65
2024/01/04 03:33:49;;;;;;;0.80;0.40;;;10.20;99.90;;;10.35;86.05;99056.34;4834510;28;24451;-64
2024/01/04 03:36:14;;;;;;;1.60;0.60;;;10.20;99.90;;;10.39;85.76;99049.06;4828293;28;24535;-63
2024/01/04 03:38:36;;;;;;;0.60;0.45;;;10.30;99.90;;;10.43;85.41;99053.84;4835807;28;24487;-64
2024/01/04 03:41:02;;;;;;;1.90;0.40;;;10.30;99.90;;;10.54;85.62;99056.22;4834969;28;24487;-62
2024/01/04 03:43:24;;;;;;;0.50;0.50;;;10.40;99.90;;;10.52;85.71;99065.97;4834049;28;24445;-64
2024/01/04 03:45:46;;;;;;;1.03;0.50;;;10.40;99.90;;;10.55;85.96;99062.25;4836606;28;24970;-65
2024/01/04 03:48:08;;;;;;;0.50;0.50;;;10.40;99.90;;;10.56;85.80;99062.09;4833937;28;25025;-64
2024/01/04 03:50:30;;;;;;;0.80;0.40;;;10.40;99.90;;;10.55;85.33;99068.28;4792942;28;24456;-64
2024/01/04 03:52:53;;;;;;;0.50;0.40;;;10.40;99.90;;;10.58;85.94;99064.56;4835772;28;25004;-64
2024/01/04 03:55:16;;;;;;;0.40;0.40;;;10.40;99.90;;;10.60;85.52;99070.47;4834215;28;24927;-64
2024/01/04 03:57:38;;;;;;;2.00;0.50;;;10.40;99.90;;;10.60;85.51;99050.44;4837186;28;24498;-65
2024/01/04 04:00:01;;;;;;;0.50;0.50;;;10.50;99.90;;;10.65;85.47;99063.81;4817102;28;24479;-64
2024/01/04 04:02:23;;;;;;;2.50;0.50;;;10.50;99.90;;;10.64;85.13;99062.19;4824675;28;24659;-65
2024/01/04 04:04:45;;;;;;;0.40;0.40;;;10.50;99.90;;;10.60;84.95;99068.69;4829837;28;24429;-65
2024/01/04 04:07:07;;;;;;;0.40;0.40;;;10.50;99.90;;;10.52;86.27;99067.78;4833784;28;25036;-64
2024/01/04 04:09:29;;;;;;;1.20;0.30;;;10.40;99.90;;;10.55;85.40;99068.28;4834734;28;24459;-65
2024/01/04 04:11:51;;;;;;;0.40;0.40;;;10.40;99.90;;;10.54;85.81;99073.66;4834643;28;24429;-65
2024/01/04 04:14:13;;;;;;;0.60;0.40;;;10.40;99.90;;;10.53;85.29;99075.44;4835004;28;25244;-65
2024/01/04 04:16:40;;;;;;;0.50;0.50;;;10.40;99.90;;;10.49;84.84;99087.16;4823497;28;24535;-63
2024/01/04 04:19:03;;;;;;;1.00;0.40;;;10.40;99.90;;;10.53;84.01;99085.06;4836252;28;24428;-65
2024/01/04 04:21:25;;;;;;;0.93;0.50;;;10.40;99.90;;;10.58;83.81;99093.28;4834379;28;24444;-65
2024/01/04 04:23:49;;;;;;;0.83;0.70;;;10.40;99.90;;;10.60;84.48;99096.53;4834017;28;24615;-65
2024/01/04 04:26:12;;;;;;;0.80;0.60;;;10.50;99.90;;;10.58;84.94;99101.09;4817968;28;24495;-65
2024/01/04 04:28:34;;;;;;;0.30;0.30;;;10.50;99.90;;;10.57;85.12;99099.44;4833774;28;24454;-65
2024/01/04 04:30:55;;;;;;;0.57;0.50;;;10.50;99.90;;;10.52;85.40;99109.50;4834940;28;24452;-64
2024/01/04 04:33:18;;;;;;;0.80;0.50;;;10.40;99.90;;;10.50;85.59;99107.03;4832186;28;25077;-66
2024/01/04 04:35:40;;;;;;;0.60;0.50;;;10.40;99.90;;;10.51;85.00;99121.72;4811591;28;24461;-65
2024/01/04 04:38:16;;;;;;;1.13;0.50;;;10.40;99.90;;;10.50;85.86;99117.44;4833435;28;25013;-65
2024/01/04 04:40:38;;;;;;;0.50;0.50;;;10.30;99.90;;;10.50;86.28;99133.09;4834266;28;24428;-65
2024/01/04 04:43:00;;;;;;;0.90;0.43;;;10.30;99.90;;;10.49;85.92;99130.66;4827563;28;24563;-66
2024/01/04 04:45:22;;;;;;;0.60;0.60;;;10.30;99.90;;;10.49;85.55;99131.47;4829001;28;24532;-65
2024/01/04 04:47:44;;;;;;;0.50;0.50;;;10.30;99.90;;;10.45;85.85;99135.34;4830777;28;24452;-65
2024/01/04 04:50:07;;;;;;;1.40;0.50;;;10.30;99.90;;;10.44;86.00;99138.91;4814717;28;24741;-66
2024/01/04 04:52:29;;;;;;;0.50;0.50;;;10.30;99.90;;;10.45;85.61;99139.72;4832091;28;24444;-65
2024/01/04 04:54:51;;;;;;;1.20;0.50;;;10.30;99.90;;;10.39;86.25;99140.31;4834655;28;24464;-64
2024/01/04 04:57:13;;;;;;;0.98;0.60;;;10.30;99.90;;;10.37;85.79;99143.03;4831692;28;24447;-64
2024/01/04 04:59:35;;;;;;;0.40;0.40;;;10.30;99.90;;;10.35;85.56;99154.59;4833249;28;24447;-64
2024/01/04 05:01:57;;;;;;;0.50;0.50;;;10.20;99.90;;;10.37;84.88;99148.25;4831990;28;25083;-64
2024/01/04 05:04:19;;;;;;;0.50;0.50;;;10.20;99.90;;;10.34;85.00;99166.81;4832313;28;24488;-63
2024/01/04 05:06:41;;;;;;;1.00;0.60;;;10.20;99.90;;;10.28;86.13;99179.59;4834690;28;24436;-64
2024/01/04 05:09:03;;;;;;;0.90;0.40;;;10.20;99.90;;;10.30;85.91;99175.06;4838442;28;24498;-63
2024/01/04 05:11:25;;;;;;;0.90;0.47;;;10.20;99.90;;;10.35;85.40;99167.63;4834889;28;24456;-63
2024/01/04 05:13:47;;;;;;;0.52;0.52;;;10.20;99.90;;;10.31;85.48;99182.72;4839226;28;24429;-65
2024/01/04 05:16:10;;;;;;;0.60;0.60;;;10.20;99.90;;;10.29;85.99;99187.25;4836877;28;24544;-65
2024/01/04 05:18:31;;;;;;;0.50;0.50;;;10.20;99.90;;;10.30;85.89;99199.34;4840982;28;24440;-65
2024/01/04 05:20:53;;;;;;;0.50;0.50;;;10.20;99.90;;;10.28;86.11;99190.84;4838269;28;20869;-65
2024/01/04 05:23:17;;;;;;;0.50;0.50;;;10.20;99.90;;;10.32;86.45;99205.25;4838740;28;24435;-65
2024/01/04 05:25:39;;;;;;;0.47;0.47;;;10.20;99.90;;;10.36;85.76;99204.00;4838774;28;24436;-64
2024/01/04 05:28:03;;;;;;;1.90;0.70;;;10.20;99.90;;;10.40;85.93;99209.72;4818862;28;24435;-65
2024/01/04 05:30:25;;;;;;;0.40;0.40;;;10.20;99.90;;;10.43;84.97;99212.88;4839101;28;24507;-63
2024/01/04 05:32:47;;;;;;;0.52;0.52;;;10.30;99.90;;;10.35;85.17;99228.41;4834976;28;24452;-64
2024/01/04 05:35:11;;;;;;;0.50;0.50;;;10.30;99.90;;;10.35;84.28;99233.63;4838154;28;24810;-65
2024/01/04 05:37:33;;;;;;;1.27;0.60;;;10.20;99.90;;;10.39;85.45;99245.41;4835717;28;24530;-64
2024/01/04 05:39:55;;;;;;;1.20;0.50;;;10.20;99.90;;;10.43;84.63;99238.97;4836339;28;24994;-64
2024/01/04 05:42:21;;;;;;;0.40;0.40;;;10.30;99.90;;;10.41;83.63;99251.31;4830483;28;24424;-64
2024/01/04 05:44:43;;;;;;;0.50;0.50;;;10.30;99.90;;;10.39;84.12;99245.41;4837907;28;24478;-65
2024/01/04 05:47:07;;;;;;;0.55;0.50;;;10.30;99.90;;;10.41;83.71;99263.53;4814232;28;24544;-62
2024/01/04 05:49:29;;;;;;;0.90;0.52;;;10.30;99.90;;;10.45;83.79;99268.31;4835739;28;25255;-64
2024/01/04 05:51:51;;;;;;;0.57;0.50;;;10.30;99.90;;;10.49;84.25;99268.84;4832352;28;25259;-64
2024/01/04 05:54:12;;;;;;;0.60;0.50;;;10.30;99.90;;;10.50;83.68;99273.91;4837470;28;24436;-63
2024/01/04 05:56:34;;;;;;;1.00;0.40;;;10.30;99.90;;;10.53;84.19;99278.84;4837916;28;24492;-65
2024/01/04 05:58:56;;;;;;;0.80;0.47;;;10.30;99.90;;;10.55;84.41;99289.13;4835400;28;24455;-63
2024/01/04 06:01:18;;;;;;;1.80;0.50;;;10.40;99.90;;;10.57;83.27;99295.03;4835133;28;24544;-66
2024/01/04 06:03:40;;;;;;;0.40;0.40;;;10.40;99.90;;;10.56;83.78;99293.41;4826548;28;24456;-63
2024/01/04 06:06:03;;;;;;;1.10;0.52;;;10.40;99.90;;;10.59;84.59;99311.34;4835730;28;24455;-65
2024/01/04 06:08:25;;;;;;;0.60;0.60;;;10.40;99.90;;;10.60;84.28;99310.41;4836192;28;24523;-66
2024/01/04 06:10:47;;;;;;;0.60;0.60;;;10.40;99.90;;;10.63;85.03;99308.31;4830672;28;24445;-64
2024/01/04 06:13:09;;;;;;;1.30;0.60;;;10.40;99.90;;;10.63;84.38;99310.09;4828257;28;24475;-64
2024/01/04 06:15:31;;;;;;;0.80;0.65;;;10.40;99.90;;;10.64;84.82;99323.03;4835549;28;24526;-64
2024/01/04 06:17:53;;;;;;;0.60;0.50;;;10.50;99.90;;;10.66;84.84;99315.88;4833205;28;24987;-64
2024/01/04 06:20:16;;;;;;;0.90;0.40;;;10.50;99.90;;;10.64;85.11;99316.97;4837203;28;24475;-65
2024/01/04 06:22:39;;;;;;;0.50;0.50;;;10.50;99.90;;;10.68;84.36;99323.56;4835996;28;24535;-65
2024/01/04 06:25:01;;;;;;;0.70;0.50;;;10.50;99.90;;;10.65;85.56;99335.09;4819575;28;24838;-64
2024/01/04 06:27:23;;;;;;;0.50;0.50;;;10.50;99.90;;;10.63;85.03;99330.97;4807900;28;25023;-66
2024/01/04 06:29:45;;;;;;;0.80;0.50;;;10.50;99.90;;;10.62;85.42;99330.16;4835885;28;24432;-66
2024/01/04 06:32:08;;;;;;;0.80;0.60;;;10.50;99.90;;;10.64;84.96;99336.06;4806373;28;24586;-62
2024/01/04 06:34:30;;;;;;;0.80;0.50;;;10.50;99.90;;;10.65;84.77;99340.31;4833609;28;24428;-65
2024/01/04 06:36:52;;;;;;;0.50;0.50;;;10.50;99.90;;;10.66;85.55;99341.97;4835702;28;24444;-65
2024/01/04 06:39:14;;;;;;;0.40;0.40;;;10.40;99.90;;;10.70;85.17;99343.31;4835893;28;24443;-66
2024/01/04 06:41:38;;;;;;;0.50;0.50;;;10.50;99.90;;;10.63;85.61;99342.22;4834746;28;24523;-65
2024/01/04 06:44:00;;;;;;;0.50;0.50;;;10.50;99.90;;;10.66;84.67;99346.34;4836962;28;24475;-64
2024/01/04 06:46:22;;;;;;;0.70;0.50;;;10.40;99.90;;;10.69;85.26;99356.50;4833798;28;24575;-65
2024/01/04 06:48:44;;;;;;;0.50;0.50;;;10.50;99.90;;;10.69;85.04;99346.88;4829930;28;24502;-63
2024/01/04 06:51:06;;;;;;;0.73;0.70;;;10.50;99.90;;;10.66;85.21;99357.63;4830158;28;25034;-64
2024/01/04 06:53:28;;;;;;;0.70;0.50;;;10.50;99.90;;;10.68;85.13;99360.06;4833793;28;24810;-65
2024/01/04 06:55:50;;;;;;;0.52;0.52;;;10.50;99.90;;;10.66;84.60;99356.78;4835284;28;24490;-65
2024/01/04 06:58:12;;;;;;;0.60;0.55;;;10.50;99.90;;;10.66;84.60;99362.81;4836417;28;24491;-63
2024/01/04 07:00:34;;;;;;;0.60;0.50;;;10.50;99.90;;;10.64;85.02;99372.59;4801017;28;24449;-65
2024/01/04 07:02:56;;;;;;;0.70;0.50;;;10.50;99.90;;;10.67;85.83;99380.09;4835783;28;24849;-65
2024/01/04 07:05:18;;;;;;;1.30;0.57;;;10.50;99.90;;;10.72;84.62;99390.13;4827133;28;24447;-65
2024/01/04 07:07:40;;;;;;;0.50;0.50;;;10.50;99.90;;;10.71;84.39;99386.69;4834384;28;24448;-65
2024/01/04 07:10:03;;;;;;;0.90;0.50;;;10.50;99.90;;;10.75;84.91;99388.03;4830339;28;25042;-66
2024/01/04 07:12:25;;;;;;;0.60;0.50;;;10.60;99.90;;;10.78;83.58;99393.00;4834299;28;24503;-65
2024/01/04 07:14:47;;;;;;;0.57;0.57;;;10.60;99.90;;;10.76;83.19;99394.09;4830492;28;24440;-65
2024/01/04 07:17:09;;;;;;;1.40;0.60;;;10.60;99.90;;;10.73;83.76;99394.38;4834034;28;24432;-63
2024/01/04 07:19:31;;;;;;;0.52;0.52;;;10.50;99.90;;;10.69;83.51;99385.22;4833811;28;24452;-65
2024/01/04 07:21:53;;;;;;;1.40;0.60;;;10.50;99.90;;;10.71;82.86;99401.53;4833068;28;24822;-65
2024/01/04 07:24:16;;;;;;;1.75;0.60;;;10.50;99.90;;;10.74;83.66;99407.28;4833035;28;24436;-65
2024/01/04 07:26:38;;;;;;;0.65;0.60;;;10.50;99.90;;;10.80;83.57;99417.16;4835980;28;24544;-66
2024/01/04 07:29:00;;;;;;;0.50;0.50;;;10.60;99.90;;;10.72;83.09;99422.25;4833755;28;24819;-65
2024/01/04 07:31:22;;;;;;;0.50;0.50;;;10.60;99.90;;;10.73;83.51;99410.84;4828668;28;24444;-65
2024/01/04 07:33:44;;;;;;;1.27;0.60;;;10.60;99.90;;;10.72;83.96;99419.66;4826468;28;25048;-65
2024/01/04 07:36:09;;;;;;;0.60;0.60;;;10.50;99.90;;;10.75;83.94;99429.00;4834582;28;24429;-64
2024/01/04 07:38:34;;;;;;;0.50;0.50;;;10.60;99.90;;;10.73;84.82;99423.88;4813215;28;26066;-65
2024/01/04 07:40:56;;;;;;;0.70;0.60;;;10.60;99.90;;;10.70;86.73;99421.56;4836088;28;24536;-65
2024/01/04 07:43:18;;;;;;;0.52;0.52;;;10.50;99.90;;;10.71;86.66;99420.59;4832791;28;24484;-66
2024/01/04 07:45:40;;;;;;;0.40;0.40;;;10.50;99.90;;;10.72;86.43;99431.88;4830160;28;24543;-65
2024/01/04 07:48:03;;;;;;;1.30;0.80;;;10.50;99.90;;;10.63;86.70;99427.47;4834484;28;24539;-65
2024/01/04 07:50:25;;;;;;;0.80;0.60;;;10.50;99.90;;;10.61;88.41;99432.84;4833331;28;24911;-65
2024/01/04 07:52:47;;;;;;;0.80;0.70;;;10.50;99.90;;;10.58;88.46;99443.56;4832934;28;24559;-63
2024/01/04 07:55:09;;;;;;;1.90;0.60;;;10.40;99.90;;;10.53;90.21;99455.34;4831776;28;24990;-64
2024/01/04 07:57:31;;;;;;;0.90;0.70;;;10.40;99.90;;;10.54;89.44;99452.59;4835053;28;24436;-66
2024/01/04 07:59:53;;;;;;;1.73;0.93;;;10.40;99.90;;;10.55;89.08;99456.88;4833963;28;24931;-65
2024/01/04 08:02:16;;;;;;;1.00;0.60;;;10.40;99.90;;;10.50;90.22;99459.06;4833168;28;24439;-63
2024/01/04 08:04:38;;;;;;;1.83;0.70;;;10.40;99.90;;;10.50;88.96;99460.88;4826615;28;24454;-65
2024/01/04 08:07:00;;;;;;;0.50;0.50;;;10.40;99.90;;;10.40;89.71;99455.63;4835683;28;24548;-65
2024/01/04 08:09:22;;;;;;;1.15;0.80;;;10.30;99.90;;;10.33;90.15;99459.75;4818446;28;24440;-65
2024/01/04 08:11:44;;;;;;;1.40;0.70;;;10.20;99.90;;;10.33;90.06;99464.97;4832673;28;24467;-65
2024/01/04 08:14:07;;;;;;;1.10;0.60;;;10.20;99.90;;;10.32;89.80;99460.72;4835563;28;24429;-66
2024/01/04 08:16:29;;;;;;;2.40;0.80;;;10.20;99.90;;;10.34;89.35;99466.63;4834409;28;24437;-65
2024/01/04 08:18:51;;;;;;;2.30;0.97;;;10.20;99.90;;;10.33;88.93;99470.19;4814550;28;24560;-66
2024/01/04 08:21:13;;;;;;;1.92;0.80;;;10.20;99.90;;;10.34;88.58;99466.63;4813844;28;24443;-66
2024/01/04 08:23:36;;;;;;;1.13;0.82;;;10.20;99.90;;;10.30;89.58;99480.91;4833170;28;24444;-66
2024/01/04 08:25:58;;;;;;;1.20;0.80;;;10.20;99.90;;;10.27;90.03;99491.59;4836823;28;24467;-65
2024/01/04 08:28:21;;;;;;;1.42;0.90;;;10.10;99.90;;;10.26;89.82;99489.94;4822967;28;24429;-64
2024/01/04 08:30:42;;;;;;;1.70;0.90;;;10.10;99.90;;;10.30;89.08;99487.88;4825757;28;24543;-66
2024/01/04 08:33:05;;;;;;;1.00;0.80;;;10.10;99.90;;;10.31;88.73;99495.56;4815371;28;24510;-65
2024/01/04 08:35:27;;;;;;;1.98;0.90;;;10.20;99.90;;;10.34;89.05;99502.28;4836559;28;24527;-65
2024/01/04 08:37:49;;;;;;;1.20;0.70;;;10.20;99.90;;;10.39;87.99;99495.69;4833446;28;24440;-65
2024/01/04 08:40:13;;;;;;;2.75;0.93;;;10.20;99.90;;;10.43;86.42;99510.13;4824139;28;24444;-65
2024/01/04 08:42:38;;;;;;;1.90;0.55;;;10.30;99.90;;;10.42;86.55;99523.28;4833051;28;24519;-65
2024/01/04 08:45:00;;;;;;;1.90;0.80;;;10.30;99.90;;;10.45;86.19;99529.06;4809396;28;24467;-67
2024/01/04 08:47:23;;;;;;;1.00;0.80;;;10.30;99.90;;;10.46;86.20;99532.47;4834028;28;24515;-66
2024/01/04 08:49:45;;;;;;;1.30;0.60;;;10.30;99.90;;;10.51;86.10;99535.53;4827821;28;24433;-66
2024/01/04 08:52:10;;;;;;;1.35;0.60;;;10.30;99.90;;;10.53;85.22;99541.41;4830361;28;24480;-66
2024/01/04 08:54:32;;;;;;;1.20;0.70;;;10.30;99.90;;;10.53;85.17;99542.25;4834718;28;24988;-64
2024/01/04 08:56:54;;;;;;;5.05;1.10;;;10.30;99.90;;;10.56;84.27;99549.00;4832972;28;24810;-64
2024/01/04 08:59:16;;;;;;;1.30;0.73;;;10.40;99.90;;;10.55;84.97;99548.16;4832883;28;24428;-63
2024/01/04 09:01:38;;;;;;;1.40;0.70;;;10.40;99.90;;;10.55;84.22;99548.16;4824949;28;24469;-64
2024/01/04 09:04:01;;;;;;;1.80;1.13;;;10.40;99.90;;;10.61;85.12;99547.59;4830871;28;24643;-66
2024/01/04 09:06:23;;;;;;;2.65;1.10;;;10.40;99.90;;;10.73;84.44;99548.31;4834104;28;24432;-65
2024/01/04 09:08:45;;;;;;;2.50;0.80;;;10.50;99.90;;;10.79;84.05;99548.59;4834714;28;24437;-65
2024/01/04 09:11:07;;;;;;;3.58;0.80;;;10.50;99.90;;;10.79;83.25;99560.81;4830907;28;25186;-65
2024/01/04 09:13:30;;;;;;;2.60;0.82;;;10.60;99.90;;;10.85;82.37;99555.84;4834010;28;24510;-63
2024/01/04 09:15:52;;;;;;;2.53;0.90;;;10.60;99.90;;;10.88;82.65;99555.56;4817112;28;24978;-64
2024/01/04 09:18:13;;;;;;;2.20;1.00;;;10.60;99.90;;;10.96;82.87;99567.09;4832128;28;24884;-64
2024/01/04 09:20:36;;;;;;;1.30;1.00;;;10.70;99.90;;;11.00;82.35;99558.88;4825092;28;24436;-65
2024/01/04 09:22:58;;;;;;;2.50;1.00;;;10.70;99.90;;;11.12;81.40;99562.97;4831850;28;24448;-65
2024/01/04 09:25:20;;;;;;;3.45;1.13;;;10.80;99.90;;;11.21;82.19;99566.53;4829559;28;25013;-65
2024/01/04 09:27:42;;;;;;;2.92;0.90;;;10.90;99.90;;;11.33;80.70;99573.25;4829256;28;24495;-65
2024/01/04 09:30:04;;;;;;;3.20;0.88;;;11.00;99.90;;;11.54;79.74;99574.69;4832190;28;24449;-65
2024/01/04 09:32:26;;;;;;;3.38;1.27;;;11.20;99.90;;;11.74;78.38;99585.94;4834583;28;24483;-66
2024/01/04 09:34:49;;;;;;;1.42;0.90;;;11.40;99.90;;;11.84;79.36;99586.72;4831767;28;24467;-65
2024/01/04 09:37:12;;;;;;;2.92;1.02;;;11.50;99.90;;;12.02;77.88;99592.88;4834865;28;24611;-66
2024/01/04 09:39:34;;;;;;;3.22;1.17;;;11.60;99.90;;;12.23;77.65;99593.44;4801197;28;24825;-65
2024/01/04 09:41:57;;;;;;;3.75;0.90;;;11.80;99.90;;;12.39;77.04;99591.00;4834112;28;24527;-65
2024/01/04 09:44:19;;;;;;;4.60;1.50;;;11.90;99.90;;;12.68;75.27;99597.84;4817785;28;24482;-65
2024/01/04 09:46:42;;;;;;;2.00;0.90;;;12.10;99.90;;;12.91;74.64;99599.88;4815229;28;24452;-65
2024/01/04 09:49:07;;;;;;;4.55;1.10;;;12.40;99.90;;;13.16;73.76;99599.16;4817061;28;24436;-65
2024/01/04 09:51:39;;;;;;;3.10;1.20;;;12.60;99.90;;;13.29;73.27;99604.00;4822023;28;24457;-65
2024/01/04 09:54:02;;;;;;;3.63;1.30;;;12.70;99.90;;;13.45;72.73;99600.69;4837638;28;24835;-66
2024/01/04 09:56:26;;;;;;;2.80;1.10;;;12.90;99.90;;;13.54;72.17;99602.38;4822817;28;24531;-66
2024/01/04 09:58:49;;;;;;;3.47;1.10;;;13.00;99.90;;;13.45;72.84;99598.88;4830484;28;24433;-65